createdAt,value
2017-04-23T00:00:42.793Z,87.10
2017-04-23T00:01:41.723Z,87.10
2017-04-23T00:02:40.727Z,86.80
2017-04-23T00:03:40.498Z,86.20
2017-04-23T00:04:39.458Z,86.90
2017-04-23T00:05:38.380Z,87.10
2017-04-23T00:06:37.289Z,87.10
2017-04-23T00:07:36.949Z,87.20
2017-04-23T00:08:35.940Z,87.10
2017-04-23T00:09:34.853Z,87.30
2017-04-23T00:10:33.930Z,87.30
2017-04-23T00:11:33.559Z,87.20
2017-04-23T00:12:32.549Z,87.00
2017-04-23T00:13:31.459Z,87.80
2017-04-23T00:14:30.385Z,86.80
2017-04-23T00:15:29.348Z,86.60
2017-04-23T00:16:28.985Z,86.80
2017-04-23T00:17:27.895Z,87.00
2017-04-23T00:18:26.876Z,87.00
2017-04-23T00:19:25.833Z,86.90
2017-04-23T00:20:24.752Z,86.90
2017-04-23T00:21:23.676Z,86.60
2017-04-23T00:22:22.705Z,87.00
2017-04-23T00:23:21.644Z,87.10
2017-04-23T00:24:20.556Z,86.70
2017-04-23T00:25:19.502Z,86.90
2017-04-23T00:26:18.453Z,87.00
2017-04-23T00:27:17.376Z,85.70
2017-04-23T00:28:16.293Z,85.90
2017-04-23T00:29:15.206Z,87.10
2017-04-23T00:30:14.883Z,87.30
2017-04-23T00:31:13.793Z,87.50
2017-04-23T00:32:13.479Z,87.10
2017-04-23T00:33:13.149Z,86.10
2017-04-23T00:34:12.095Z,86.80
2017-04-23T00:35:11.321Z,86.90
2017-04-23T00:36:10.238Z,86.80
2017-04-23T00:37:09.893Z,86.60
2017-04-23T00:38:08.800Z,86.60
2017-04-23T00:39:08.452Z,85.50
2017-04-23T00:40:07.391Z,85.80
2017-04-23T00:41:07.032Z,85.90
2017-04-23T00:42:05.952Z,85.60
2017-04-23T00:43:04.854Z,85.10
2017-04-23T00:44:04.567Z,85.00
2017-04-23T00:45:03.484Z,84.90
2017-04-23T00:46:02.430Z,84.50
2017-04-23T00:47:01.368Z,84.30
2017-04-23T00:48:00.290Z,83.70
2017-04-23T00:48:59.215Z,83.60
2017-04-23T00:49:58.145Z,83.90
2017-04-23T00:50:57.817Z,83.70
2017-04-23T00:51:56.716Z,83.90
2017-04-23T00:52:56.365Z,84.00
2017-04-23T00:53:55.277Z,84.10
2017-04-23T00:54:54.185Z,84.10
2017-04-23T00:55:53.900Z,84.20
2017-04-23T00:56:52.808Z,84.40
2017-04-23T00:57:51.736Z,84.40
2017-04-23T00:58:51.389Z,84.50
2017-04-23T00:59:50.328Z,84.70
2017-04-23T01:00:49.251Z,85.40
2017-04-23T01:01:48.211Z,84.90
2017-04-23T01:02:47.124Z,85.00
2017-04-23T01:03:46.024Z,85.00
2017-04-23T01:04:44.965Z,85.20
2017-04-23T01:05:43.892Z,85.20
2017-04-23T01:06:42.817Z,85.40
2017-04-23T01:07:41.780Z,85.30
2017-04-23T01:08:41.491Z,85.20
2017-04-23T01:09:40.483Z,86.00
2017-04-23T01:10:39.412Z,85.50
2017-04-23T01:11:38.337Z,84.80
2017-04-23T01:12:37.311Z,84.60
2017-04-23T01:13:36.251Z,84.60
2017-04-23T01:14:35.303Z,84.10
2017-04-23T01:15:34.215Z,83.90
2017-04-23T01:16:33.133Z,84.20
2017-04-23T01:17:35.234Z,84.40
2017-04-23T01:18:34.239Z,84.50
2017-04-23T01:19:33.306Z,84.70
2017-04-23T01:20:32.341Z,84.90
2017-04-23T01:21:31.363Z,85.00
2017-04-23T01:22:30.401Z,85.20
2017-04-23T01:23:29.460Z,85.40
2017-04-23T01:24:28.491Z,85.50
2017-04-23T01:25:27.508Z,85.80
2017-04-23T01:26:26.558Z,86.00
2017-04-23T01:27:25.688Z,86.10
2017-04-23T01:28:24.755Z,86.20
2017-04-23T01:29:23.725Z,86.40
2017-04-23T01:30:22.687Z,86.40
2017-04-23T01:31:21.823Z,87.50
2017-04-23T01:32:20.704Z,86.70
2017-04-23T01:33:19.613Z,86.50
2017-04-23T01:34:19.304Z,86.50
2017-04-23T01:35:18.225Z,86.30
2017-04-23T01:36:17.184Z,86.00
2017-04-23T01:37:16.853Z,85.60
2017-04-23T01:39:15.027Z,85.60
2017-04-23T01:40:13.938Z,85.20
2017-04-23T01:41:12.843Z,85.60
2017-04-23T01:42:11.748Z,85.00
2017-04-23T01:43:10.669Z,84.20
2017-04-23T01:44:09.595Z,84.30
2017-04-23T01:45:08.512Z,84.80
2017-04-23T01:46:07.487Z,85.20
2017-04-23T01:47:06.393Z,85.10
2017-04-23T01:48:06.083Z,84.90
2017-04-23T01:49:05.007Z,84.80
2017-04-23T01:50:03.912Z,84.90
2017-04-23T01:51:03.121Z,85.10
2017-04-23T01:52:02.067Z,85.10
2017-04-23T01:53:00.996Z,85.30
2017-04-23T01:54:00.664Z,85.00
2017-04-23T01:54:59.686Z,85.40
2017-04-23T01:55:59.336Z,85.70
2017-04-23T01:56:58.283Z,85.80
2017-04-23T01:57:57.188Z,86.20
2017-04-23T01:58:56.093Z,86.40
2017-04-23T01:59:56.097Z,86.30
2017-04-23T02:00:55.122Z,86.30
2017-04-23T02:01:54.829Z,86.40
2017-04-23T02:02:53.749Z,86.40
2017-04-23T02:03:52.665Z,86.50
2017-04-23T02:04:51.564Z,86.60
2017-04-23T02:05:51.224Z,86.80
2017-04-23T02:06:50.143Z,86.80
2017-04-23T02:07:49.812Z,86.90
2017-04-23T02:08:48.747Z,86.90
2017-04-23T02:09:47.717Z,86.50
2017-04-23T02:10:46.622Z,86.30
2017-04-23T02:11:45.546Z,86.70
2017-04-23T02:12:44.576Z,85.90
2017-04-23T02:13:43.489Z,86.20
2017-04-23T02:14:42.373Z,85.80
2017-04-23T02:15:41.279Z,86.00
2017-04-23T02:16:40.915Z,86.30
2017-04-23T02:17:39.827Z,85.80
2017-04-23T02:18:38.768Z,85.70
2017-04-23T02:19:37.672Z,85.70
2017-04-23T02:20:36.632Z,85.20
2017-04-23T02:21:35.572Z,84.60
2017-04-23T02:22:34.515Z,85.00
2017-04-23T02:23:33.497Z,84.90
2017-04-23T02:24:32.440Z,84.60
2017-04-23T02:25:32.083Z,84.50
2017-04-23T02:26:30.995Z,84.70
2017-04-23T02:27:29.927Z,84.70
2017-04-23T02:28:28.867Z,84.40
2017-04-23T02:29:27.792Z,84.50
2017-04-23T02:30:26.735Z,84.30
2017-04-23T02:31:26.411Z,84.40
2017-04-23T02:32:25.338Z,84.50
2017-04-23T02:33:24.231Z,84.30
2017-04-23T02:34:23.160Z,84.30
2017-04-23T02:35:22.064Z,84.10
2017-04-23T02:36:21.719Z,84.00
2017-04-23T02:37:20.635Z,84.10
2017-04-23T02:38:19.552Z,84.20
2017-04-23T02:39:18.526Z,84.40
2017-04-23T02:40:17.459Z,84.40
2017-04-23T02:41:16.348Z,84.10
2017-04-23T02:43:14.728Z,84.00
2017-04-23T02:44:13.681Z,84.00
2017-04-23T02:45:12.583Z,84.00
2017-04-23T02:46:11.516Z,84.10
2017-04-23T02:47:10.421Z,84.10
2017-04-23T02:48:09.373Z,84.00
2017-04-23T02:49:08.277Z,84.20
2017-04-23T02:50:07.200Z,84.10
2017-04-23T02:51:06.895Z,84.40
2017-04-23T02:52:05.825Z,84.00
2017-04-23T02:53:04.775Z,84.00
2017-04-23T02:54:04.485Z,83.90
2017-04-23T02:55:04.128Z,83.90
2017-04-23T02:56:03.084Z,83.90
2017-04-23T02:57:02.199Z,84.10
2017-04-23T02:58:01.100Z,84.00
2017-04-23T02:59:00.001Z,84.10
2017-04-23T02:59:59.045Z,83.70
2017-04-23T03:00:57.995Z,83.70
2017-04-23T03:01:56.906Z,83.60
2017-04-23T03:02:55.824Z,83.70
2017-04-23T03:03:55.455Z,83.60
2017-04-23T03:04:54.468Z,83.70
2017-04-23T03:05:53.388Z,83.40
2017-04-23T03:06:53.031Z,83.50
2017-04-23T03:07:51.933Z,83.30
2017-04-23T03:08:50.861Z,82.80
2017-04-23T03:09:49.892Z,82.80
2017-04-23T03:10:48.820Z,82.80
2017-04-23T03:11:47.740Z,82.90
2017-04-23T03:12:46.650Z,82.80
2017-04-23T03:13:45.552Z,82.70
2017-04-23T03:14:45.204Z,82.80
2017-04-23T03:15:44.137Z,82.60
2017-04-23T03:16:43.810Z,82.90
2017-04-23T03:17:42.808Z,82.40
2017-04-23T03:18:42.468Z,82.50
2017-04-23T03:19:41.378Z,82.80
2017-04-23T03:20:40.288Z,82.60
2017-04-23T03:21:39.803Z,82.50
2017-04-23T03:22:38.711Z,82.40
2017-04-23T03:23:38.021Z,82.50
2017-04-23T03:25:36.375Z,82.60
2017-04-23T03:26:35.294Z,82.00
2017-04-23T03:27:34.964Z,82.30
2017-04-23T03:28:33.868Z,82.60
2017-04-23T03:29:33.631Z,82.50
2017-04-23T03:30:32.514Z,82.70
2017-04-23T03:31:31.419Z,82.90
2017-04-23T03:32:30.318Z,83.20
2017-04-23T03:33:29.968Z,83.30
2017-04-23T03:34:28.883Z,83.50
2017-04-23T03:35:27.835Z,83.40
2017-04-23T03:36:26.788Z,83.70
2017-04-23T03:37:25.741Z,84.70
2017-04-23T03:38:25.456Z,83.80
2017-04-23T03:39:24.381Z,84.50
2017-04-23T03:40:23.289Z,83.70
2017-04-23T03:41:22.204Z,83.80
2017-04-23T03:42:21.115Z,83.60
2017-04-23T03:43:20.011Z,83.80
2017-04-23T03:44:18.899Z,84.90
2017-04-23T03:45:17.967Z,84.30
2017-04-23T03:46:16.872Z,84.40
2017-04-23T03:47:15.832Z,84.60
2017-04-23T03:48:14.781Z,85.00
2017-04-23T03:49:13.685Z,85.30
2017-04-23T03:50:12.594Z,85.00
2017-04-23T03:51:11.519Z,85.30
2017-04-23T03:52:10.452Z,85.60
2017-04-23T03:54:08.749Z,85.90
2017-04-23T03:55:08.409Z,85.90
2017-04-23T03:56:07.307Z,86.00
2017-04-23T03:57:06.212Z,86.00
2017-04-23T03:58:05.864Z,86.30
2017-04-23T03:59:04.897Z,86.50
2017-04-23T04:00:04.571Z,86.40
2017-04-23T04:01:03.528Z,85.70
2017-04-23T04:02:02.431Z,86.30
2017-04-23T04:03:01.345Z,86.40
2017-04-23T04:04:00.263Z,86.20
2017-04-23T04:04:59.215Z,85.80
2017-04-23T04:05:58.107Z,86.50
2017-04-23T04:06:57.007Z,86.20
2017-04-23T04:07:55.963Z,85.90
2017-04-23T04:08:54.857Z,86.10
2017-04-23T04:09:53.780Z,85.80
2017-04-23T04:10:53.456Z,86.40
2017-04-23T04:11:52.363Z,86.20
2017-04-23T04:12:51.286Z,86.60
2017-04-23T04:13:50.190Z,87.40
2017-04-23T04:14:49.079Z,86.90
2017-04-23T04:15:47.997Z,89.00
2017-04-23T04:16:50.584Z,90.00
2017-04-23T04:17:49.569Z,90.40
2017-04-23T04:18:48.499Z,90.10
2017-04-23T04:19:47.405Z,90.50
2017-04-23T04:20:46.300Z,90.40
2017-04-23T04:21:45.963Z,90.60
2017-04-23T04:22:44.904Z,90.30
2017-04-23T04:23:43.808Z,90.40
2017-04-23T04:24:42.797Z,90.20
2017-04-23T04:25:41.712Z,90.50
2017-04-23T04:26:41.395Z,90.50
2017-04-23T04:27:40.309Z,90.60
2017-04-23T04:28:39.244Z,90.50
2017-04-23T04:29:38.139Z,90.40
2017-04-23T04:30:37.059Z,90.30
2017-04-23T04:31:35.957Z,90.20
2017-04-23T04:32:34.878Z,90.00
2017-04-23T04:33:33.857Z,90.10
2017-04-23T04:34:32.791Z,90.30
2017-04-23T04:35:31.712Z,90.10
2017-04-23T04:36:30.752Z,90.00
2017-04-23T04:37:29.637Z,90.10
2017-04-23T04:38:28.523Z,90.10
2017-04-23T04:39:27.535Z,90.20
2017-04-23T04:40:26.452Z,90.40
2017-04-23T04:41:25.399Z,90.20
2017-04-23T04:42:24.299Z,90.20
2017-04-23T04:43:23.191Z,90.30
2017-04-23T04:44:22.819Z,90.00
2017-04-23T04:45:21.724Z,90.10
2017-04-23T04:46:20.943Z,90.20
2017-04-23T04:47:19.868Z,90.20
2017-04-23T04:48:18.768Z,90.00
2017-04-23T04:49:17.679Z,89.90
2017-04-23T04:50:16.588Z,90.10
2017-04-23T04:51:15.492Z,90.00
2017-04-23T04:52:14.411Z,89.60
2017-04-23T04:53:13.312Z,89.80
2017-04-23T04:54:12.223Z,90.00
2017-04-23T04:55:11.155Z,90.40
2017-04-23T04:56:10.063Z,90.10
2017-04-23T04:57:09.705Z,90.10
2017-04-23T04:58:08.674Z,90.00
2017-04-23T04:59:07.571Z,89.60
2017-04-23T05:00:06.489Z,89.70
2017-04-23T05:01:05.379Z,89.80
2017-04-23T05:02:05.035Z,90.10
2017-04-23T05:03:03.965Z,90.20
2017-04-23T05:04:03.624Z,90.10
2017-04-23T05:05:02.532Z,90.10
2017-04-23T05:06:01.453Z,90.10
2017-04-23T05:07:00.379Z,90.20
2017-04-23T05:07:59.324Z,89.90
2017-04-23T05:08:58.224Z,90.10
2017-04-23T05:09:57.229Z,90.00
2017-04-23T05:10:56.163Z,90.00
2017-04-23T05:11:55.128Z,90.00
2017-04-23T05:12:54.062Z,90.20
2017-04-23T05:13:53.364Z,89.70
2017-04-23T05:14:52.312Z,90.00
2017-04-23T05:15:51.363Z,89.20
2017-04-23T05:16:50.286Z,89.70
2017-04-23T05:17:49.251Z,89.80
2017-04-23T05:18:48.217Z,89.50
2017-04-23T05:19:47.117Z,90.00
2017-04-23T05:20:46.107Z,89.70
2017-04-23T05:21:45.123Z,89.30
2017-04-23T05:22:44.035Z,89.00
2017-04-23T05:23:43.710Z,89.30
2017-04-23T05:24:42.604Z,89.40
2017-04-23T05:25:42.277Z,89.20
2017-04-23T05:26:41.187Z,88.90
2017-04-23T05:27:40.864Z,88.90
2017-04-23T05:28:39.797Z,89.10
2017-04-23T05:29:38.728Z,88.90
2017-04-23T05:30:37.680Z,88.60
2017-04-23T05:31:36.607Z,88.40
2017-04-23T05:32:36.419Z,88.20
2017-04-23T05:33:36.073Z,88.10
2017-04-23T05:34:34.988Z,88.00
2017-04-23T05:35:34.707Z,87.60
2017-04-23T05:36:39.368Z,87.20
2017-04-23T05:37:38.460Z,86.90
2017-04-23T05:38:37.474Z,86.10
2017-04-23T05:39:37.134Z,87.30
2017-04-23T05:40:36.085Z,87.70
2017-04-23T05:41:34.995Z,86.70
2017-04-23T05:42:33.926Z,86.60
2017-04-23T05:43:33.559Z,87.10
2017-04-23T05:44:32.523Z,86.70
2017-04-23T05:45:31.483Z,86.90
2017-04-23T05:46:30.415Z,86.40
2017-04-23T05:47:29.458Z,86.00
2017-04-23T05:48:28.387Z,86.50
2017-04-23T05:49:27.419Z,86.30
2017-04-23T05:50:27.081Z,86.40
2017-04-23T05:51:26.135Z,86.80
2017-04-23T05:52:25.115Z,86.60
2017-04-23T05:53:24.027Z,86.70
2017-04-23T05:54:22.964Z,86.70
2017-04-23T05:55:21.922Z,87.60
2017-04-23T05:56:21.608Z,86.40
2017-04-23T05:57:21.439Z,86.00
2017-04-23T05:58:20.342Z,86.40
2017-04-23T05:59:19.267Z,87.20
2017-04-23T06:00:18.952Z,86.80
2017-04-23T06:01:17.864Z,87.00
2017-04-23T06:02:17.038Z,87.10
2017-04-23T06:03:16.212Z,87.50
2017-04-23T06:04:15.115Z,87.50
2017-04-23T06:05:14.779Z,87.50
2017-04-23T06:06:13.689Z,87.80
2017-04-23T06:07:13.324Z,87.90
2017-04-23T06:08:12.274Z,87.50
2017-04-23T06:09:11.920Z,87.70
2017-04-23T06:10:10.906Z,87.90
2017-04-23T06:11:09.883Z,88.40
2017-04-23T06:12:08.788Z,88.20
2017-04-23T06:13:07.699Z,87.90
2017-04-23T06:14:07.709Z,88.00
2017-04-23T06:15:06.648Z,88.70
2017-04-23T06:16:05.549Z,87.90
2017-04-23T06:17:04.445Z,88.10
2017-04-23T06:18:04.105Z,87.70
2017-04-23T06:19:03.028Z,88.40
2017-04-23T06:20:02.783Z,88.60
2017-04-23T06:21:01.893Z,88.60
2017-04-23T06:22:01.591Z,88.60
2017-04-23T06:23:00.515Z,88.70
2017-04-23T06:23:59.565Z,88.70
2017-04-23T06:24:58.550Z,88.40
2017-04-23T06:25:57.511Z,88.10
2017-04-23T06:26:56.490Z,87.40
2017-04-23T06:27:55.495Z,88.10
2017-04-23T06:28:55.178Z,88.00
2017-04-23T06:29:54.132Z,87.20
2017-04-23T06:30:53.045Z,87.20
2017-04-23T06:31:51.989Z,86.60
2017-04-23T06:32:50.884Z,86.70
2017-04-23T06:33:49.916Z,86.60
2017-04-23T06:34:49.563Z,86.70
2017-04-23T06:35:48.488Z,86.90
2017-04-23T06:36:48.264Z,87.30
2017-04-23T06:37:47.208Z,85.50
2017-04-23T06:38:46.125Z,86.10
2017-04-23T06:39:45.068Z,85.40
2017-04-23T06:40:43.996Z,85.40
2017-04-23T06:41:42.924Z,85.50
2017-04-23T06:42:41.811Z,85.70
2017-04-23T06:43:40.888Z,84.60
2017-04-23T06:44:39.822Z,84.90
2017-04-23T06:45:38.745Z,84.90
2017-04-23T06:46:38.013Z,85.40
2017-04-23T06:47:37.699Z,84.10
2017-04-23T06:48:36.593Z,84.10
2017-04-23T06:49:36.299Z,83.40
2017-04-23T06:50:35.968Z,82.70
2017-04-23T06:51:34.882Z,82.70
2017-04-23T06:52:34.544Z,82.20
2017-04-23T06:53:33.470Z,82.80
2017-04-23T06:54:32.397Z,82.10
2017-04-23T06:55:31.380Z,81.30
2017-04-23T06:56:30.296Z,81.30
2017-04-23T06:57:29.988Z,80.50
2017-04-23T06:58:28.945Z,79.80
2017-04-23T06:59:27.911Z,80.40
2017-04-23T07:00:26.875Z,80.20
2017-04-23T07:01:25.908Z,79.90
2017-04-23T07:02:26.055Z,79.10
2017-04-23T07:03:25.398Z,77.60
2017-04-23T07:04:24.285Z,77.20
2017-04-23T07:05:23.196Z,78.50
2017-04-23T07:06:22.835Z,80.00
2017-04-23T07:07:21.988Z,81.10
2017-04-23T07:08:20.896Z,82.60
2017-04-23T07:09:19.900Z,82.30
2017-04-23T07:10:18.811Z,82.40
2017-04-23T07:11:18.566Z,83.70
2017-04-23T07:12:17.479Z,83.40
2017-04-23T07:13:16.535Z,84.40
2017-04-23T07:14:15.444Z,85.90
2017-04-23T07:15:14.418Z,84.70
2017-04-23T07:16:13.408Z,84.70
2017-04-23T07:17:12.299Z,86.60
2017-04-23T07:18:11.255Z,85.80
2017-04-23T07:19:10.210Z,86.50
2017-04-23T07:20:09.222Z,85.90
2017-04-23T07:21:08.155Z,86.90
2017-04-23T07:22:07.074Z,86.90
2017-04-23T07:23:05.986Z,86.80
2017-04-23T07:24:04.949Z,86.80
2017-04-23T07:25:03.875Z,87.20
2017-04-23T07:26:02.772Z,88.10
2017-04-23T07:27:01.768Z,89.60
2017-04-23T07:28:00.675Z,89.50
2017-04-23T07:28:59.657Z,89.90
2017-04-23T07:29:58.564Z,90.00
2017-04-23T07:30:57.486Z,89.80
2017-04-23T07:31:56.401Z,88.50
2017-04-23T07:32:55.327Z,88.10
2017-04-23T07:33:54.274Z,87.90
2017-04-23T07:34:53.179Z,86.60
2017-04-23T07:35:52.838Z,87.40
2017-04-23T07:36:51.756Z,86.80
2017-04-23T07:37:51.439Z,86.40
2017-04-23T07:38:50.339Z,86.30
2017-04-23T07:39:50.163Z,85.30
2017-04-23T07:40:49.131Z,86.60
2017-04-23T07:41:48.028Z,85.50
2017-04-23T07:42:46.965Z,84.70
2017-04-23T07:43:45.872Z,84.50
2017-04-23T07:44:44.800Z,84.20
2017-04-23T07:45:43.755Z,84.70
2017-04-23T07:46:42.658Z,85.00
2017-04-23T07:47:41.557Z,85.20
2017-04-23T07:48:40.667Z,85.20
2017-04-23T07:49:40.328Z,85.80
2017-04-23T07:50:39.408Z,85.10
2017-04-23T07:51:38.501Z,84.80
2017-04-23T07:52:37.424Z,84.40
2017-04-23T07:53:36.331Z,85.40
2017-04-23T07:54:35.273Z,84.70
2017-04-23T07:55:34.920Z,85.30
2017-04-23T07:56:33.920Z,84.30
2017-04-23T07:57:32.864Z,82.10
2017-04-23T07:58:31.907Z,83.00
2017-04-23T07:59:31.044Z,82.50
2017-04-23T08:00:30.060Z,83.70
2017-04-23T08:01:29.004Z,80.90
2017-04-23T08:02:28.872Z,83.10
2017-04-23T08:03:28.595Z,81.70
2017-04-23T08:04:27.647Z,82.00
2017-04-23T08:05:26.907Z,83.40
2017-04-23T08:06:25.914Z,81.20
2017-04-23T08:07:24.839Z,82.10
2017-04-23T08:08:23.765Z,83.40
2017-04-23T08:09:22.701Z,80.60
2017-04-23T08:10:21.604Z,79.90
2017-04-23T08:11:20.527Z,81.20
2017-04-23T08:12:19.556Z,78.60
2017-04-23T08:13:18.554Z,77.80
2017-04-23T08:14:17.544Z,77.30
2017-04-23T08:15:16.572Z,78.30
2017-04-23T08:16:15.734Z,80.20
2017-04-23T08:17:15.568Z,78.80
2017-04-23T08:18:14.568Z,79.70
2017-04-23T08:19:13.473Z,76.90
2017-04-23T08:20:12.406Z,76.20
2017-04-23T08:21:11.330Z,76.60
2017-04-23T08:22:10.329Z,77.80
2017-04-23T08:23:09.308Z,76.00
2017-04-23T08:25:07.631Z,78.10
2017-04-23T08:26:06.628Z,79.00
2017-04-23T08:27:05.634Z,79.40
2017-04-23T08:28:04.629Z,79.70
2017-04-23T08:29:03.524Z,78.80
2017-04-23T08:30:02.456Z,77.10
2017-04-23T08:31:01.369Z,78.80
2017-04-23T08:32:00.266Z,78.10
2017-04-23T08:32:59.475Z,78.70
2017-04-23T08:33:58.409Z,79.20
2017-04-23T08:34:57.323Z,79.80
2017-04-23T08:35:57.008Z,76.50
2017-04-23T08:36:55.909Z,76.70
2017-04-23T08:37:54.960Z,78.30
2017-04-23T08:38:53.989Z,74.60
2017-04-23T08:41:07.803Z,75.00
2017-04-23T08:42:06.759Z,75.30
2017-04-23T08:43:05.683Z,73.30
2017-04-23T08:44:04.628Z,72.30
2017-04-23T08:45:03.540Z,72.60
2017-04-23T08:46:03.193Z,72.40
2017-04-23T08:47:02.136Z,71.80
2017-04-23T08:48:01.066Z,70.60
2017-04-23T08:48:59.985Z,71.40
2017-04-23T08:49:58.900Z,70.60
2017-04-23T08:50:57.914Z,71.40
2017-04-23T08:51:56.804Z,71.90
2017-04-23T08:52:55.751Z,71.90
2017-04-23T08:53:54.696Z,72.80
2017-04-23T08:54:53.597Z,70.40
2017-04-23T08:55:52.620Z,70.70
2017-04-23T08:56:52.311Z,68.10
2017-04-23T08:57:51.311Z,68.40
2017-04-23T08:58:51.112Z,68.60
2017-04-23T08:59:50.089Z,69.60
2017-04-23T09:00:49.047Z,70.00
2017-04-23T09:01:47.972Z,70.60
2017-04-23T09:02:47.669Z,71.90
2017-04-23T09:03:47.331Z,71.50
2017-04-23T09:04:46.314Z,69.60
2017-04-23T09:05:45.295Z,70.20
2017-04-23T09:06:44.215Z,69.60
2017-04-23T09:07:43.924Z,70.60
2017-04-23T09:08:43.581Z,70.00
2017-04-23T09:09:42.575Z,69.40
2017-04-23T09:10:41.515Z,70.10
2017-04-23T09:11:40.465Z,69.00
2017-04-23T09:12:40.209Z,69.80
2017-04-23T09:13:39.160Z,70.10
2017-04-23T09:14:38.080Z,69.80
2017-04-23T09:15:36.996Z,70.30
2017-04-23T09:16:35.940Z,64.60
2017-04-23T09:17:34.886Z,63.90
2017-04-23T09:18:33.833Z,63.00
2017-04-23T09:19:32.775Z,60.40
2017-04-23T09:20:31.699Z,62.10
2017-04-23T09:21:30.701Z,63.40
2017-04-23T09:22:30.410Z,63.30
2017-04-23T09:23:30.116Z,61.40
2017-04-23T09:24:29.081Z,61.40
2017-04-23T09:25:28.745Z,60.80
2017-04-23T09:26:27.694Z,58.50
2017-04-23T09:27:26.601Z,59.50
2017-04-23T09:28:25.611Z,59.00
2017-04-23T09:29:24.527Z,59.10
2017-04-23T09:30:23.448Z,59.30
2017-04-23T09:31:22.369Z,59.60
2017-04-23T09:32:22.134Z,59.40
2017-04-23T09:33:21.060Z,59.70
2017-04-23T09:34:20.028Z,58.90
2017-04-23T09:35:18.999Z,58.30
2017-04-23T09:36:17.957Z,58.70
2017-04-23T09:37:16.890Z,58.60
2017-04-23T09:38:15.862Z,58.10
2017-04-23T09:39:15.553Z,58.50
2017-04-23T09:40:15.220Z,58.60
2017-04-23T09:41:14.140Z,58.90
2017-04-23T09:42:13.796Z,59.10
2017-04-23T09:43:12.724Z,59.50
2017-04-23T09:44:12.432Z,59.10
2017-04-23T09:45:11.722Z,59.20
2017-04-23T09:46:10.680Z,60.10
2017-04-23T09:47:10.329Z,59.90
2017-04-23T09:48:09.258Z,59.90
2017-04-23T09:49:08.913Z,61.40
2017-04-23T09:50:07.836Z,60.40
2017-04-23T09:51:07.498Z,59.80
2017-04-23T09:52:06.444Z,59.60
2017-04-23T09:53:05.420Z,59.60
2017-04-23T09:54:04.399Z,59.70
2017-04-23T09:55:04.051Z,59.50
2017-04-23T09:56:03.105Z,60.60
2017-04-23T09:57:02.155Z,61.60
2017-04-23T09:58:01.814Z,62.00
2017-04-23T09:59:00.756Z,62.00
2017-04-23T09:59:59.689Z,61.70
2017-04-23T10:00:58.604Z,61.80
2017-04-23T10:01:58.287Z,61.80
2017-04-23T10:02:58.133Z,61.40
2017-04-23T10:03:57.129Z,61.40
2017-04-23T10:04:56.043Z,61.70
2017-04-23T10:05:55.111Z,61.20
2017-04-23T10:06:54.086Z,61.70
2017-04-23T10:07:53.044Z,61.00
2017-04-23T10:08:51.992Z,60.30
2017-04-23T10:09:51.724Z,58.80
2017-04-23T10:10:50.625Z,57.80
2017-04-23T10:11:49.557Z,56.10
2017-04-23T10:12:48.468Z,55.20
2017-04-23T10:13:47.451Z,54.90
2017-04-23T10:14:46.467Z,55.40
2017-04-23T10:15:45.407Z,55.10
2017-04-23T10:16:44.333Z,54.50
2017-04-23T10:17:43.292Z,54.40
2017-04-23T10:18:42.402Z,53.30
2017-04-23T10:19:41.354Z,53.50
2017-04-23T10:20:40.292Z,53.90
2017-04-23T10:21:39.976Z,53.90
2017-04-23T10:22:39.250Z,54.10
2017-04-23T10:23:38.228Z,53.90
2017-04-23T10:24:37.211Z,54.10
2017-04-23T10:25:36.140Z,53.80
2017-04-23T10:26:35.814Z,53.90
2017-04-23T10:27:34.732Z,53.70
2017-04-23T10:28:33.668Z,54.40
2017-04-23T10:29:32.916Z,54.70
2017-04-23T10:30:31.894Z,55.30
2017-04-23T10:31:30.796Z,55.90
2017-04-23T10:32:29.742Z,55.90
2017-04-23T10:33:29.440Z,56.10
2017-04-23T10:34:29.148Z,55.80
2017-04-23T10:35:28.056Z,56.00
2017-04-23T10:36:27.017Z,56.30
2017-04-23T10:37:25.966Z,56.00
2017-04-23T10:38:25.660Z,55.50
2017-04-23T10:39:24.596Z,55.00
2017-04-23T10:40:23.488Z,53.60
2017-04-23T10:41:22.391Z,54.90
2017-04-23T10:42:21.295Z,54.50
2017-04-23T10:43:20.214Z,53.70
2017-04-23T10:44:19.144Z,54.10
2017-04-23T10:45:18.845Z,53.30
2017-04-23T10:46:18.525Z,53.70
2017-04-23T10:47:18.168Z,54.70
2017-04-23T10:48:17.823Z,55.10
2017-04-23T10:49:16.776Z,55.20
2017-04-23T10:50:15.777Z,54.40
2017-04-23T10:51:14.713Z,53.60
2017-04-23T10:52:13.747Z,53.40
2017-04-23T10:53:12.688Z,53.90
2017-04-23T10:54:11.607Z,54.50
2017-04-23T10:55:10.536Z,54.20
2017-04-23T10:56:09.568Z,52.70
2017-04-23T10:57:08.799Z,52.00
2017-04-23T10:58:07.743Z,51.40
2017-04-23T10:59:06.668Z,51.30
2017-04-23T11:00:05.576Z,51.10
2017-04-23T11:01:04.582Z,50.30
2017-04-23T11:02:03.472Z,50.90
2017-04-23T11:03:02.411Z,52.00
2017-04-23T11:04:01.320Z,52.40
2017-04-23T11:05:00.264Z,53.10
2017-04-23T11:05:59.245Z,52.70
2017-04-23T11:06:58.175Z,52.90
2017-04-23T11:07:57.119Z,52.70
2017-04-23T11:08:56.052Z,52.70
2017-04-23T11:09:54.965Z,52.60
2017-04-23T11:10:53.902Z,53.80
2017-04-23T11:11:52.819Z,53.50
2017-04-23T11:12:52.528Z,53.40
2017-04-23T11:13:51.453Z,53.90
2017-04-23T11:14:50.593Z,53.80
2017-04-23T11:15:49.508Z,53.40
2017-04-23T11:16:48.428Z,53.80
2017-04-23T11:17:47.357Z,53.30
2017-04-23T11:18:46.278Z,54.10
2017-04-23T11:19:46.006Z,58.00
2017-04-23T11:20:44.992Z,61.30
2017-04-23T11:21:44.640Z,64.50
2017-04-23T11:22:43.567Z,66.40
2017-04-23T11:23:43.215Z,67.90
2017-04-23T11:24:42.207Z,70.30
2017-04-23T11:25:41.133Z,71.30
2017-04-23T11:26:40.825Z,72.30
2017-04-23T11:27:40.475Z,74.70
2017-04-23T11:28:39.373Z,72.00
2017-04-23T11:29:38.344Z,70.80
2017-04-23T11:30:37.272Z,69.20
2017-04-23T11:31:36.957Z,67.90
2017-04-23T11:32:36.636Z,68.00
2017-04-23T11:33:35.623Z,67.30
2017-04-23T11:34:34.567Z,67.50
2017-04-23T11:35:33.503Z,66.20
2017-04-23T11:36:33.167Z,67.10
2017-04-23T11:37:32.084Z,65.40
2017-04-23T11:38:31.760Z,66.20
2017-04-23T11:39:30.713Z,66.90
2017-04-23T11:40:29.677Z,65.40
2017-04-23T11:41:28.584Z,65.70
2017-04-23T11:42:27.496Z,66.10
2017-04-23T11:43:26.560Z,66.20
2017-04-23T11:44:25.512Z,65.40
2017-04-23T11:45:24.524Z,66.00
2017-04-23T11:46:23.462Z,67.00
2017-04-23T11:47:22.490Z,65.60
2017-04-23T11:48:21.436Z,66.20
2017-04-23T11:49:20.388Z,65.40
2017-04-23T11:50:19.345Z,65.10
2017-04-23T11:51:18.292Z,63.80
2017-04-23T11:52:17.208Z,63.40
2017-04-23T11:53:16.107Z,62.50
2017-04-23T11:54:15.821Z,61.70
2017-04-23T11:55:15.520Z,62.00
2017-04-23T11:56:14.509Z,61.70
2017-04-23T11:57:14.151Z,62.30
2017-04-23T11:58:13.068Z,59.20
2017-04-23T11:59:12.743Z,59.70
2017-04-23T12:00:11.700Z,58.10
2017-04-23T12:01:10.624Z,57.20
2017-04-23T12:02:10.355Z,55.10
2017-04-23T12:03:09.304Z,54.50
2017-04-23T12:04:08.980Z,54.60
2017-04-23T12:05:07.896Z,53.80
2017-04-23T12:06:07.561Z,54.10
2017-04-23T12:07:06.520Z,54.50
2017-04-23T12:08:05.455Z,54.70
2017-04-23T12:09:06.032Z,54.40
2017-04-23T12:10:05.003Z,53.80
2017-04-23T12:11:04.167Z,53.40
2017-04-23T12:12:03.110Z,54.10
2017-04-23T12:13:02.023Z,54.20
2017-04-23T12:14:00.994Z,53.80
2017-04-23T12:15:00.698Z,54.50
2017-04-23T12:16:00.401Z,54.20
2017-04-23T12:17:00.063Z,53.50
2017-04-23T12:17:59.015Z,52.70
2017-04-23T12:18:57.945Z,51.40
2017-04-23T12:19:57.641Z,51.80
2017-04-23T12:20:56.573Z,51.90
2017-04-23T12:21:55.473Z,51.30
2017-04-23T12:22:54.392Z,52.00
2017-04-23T12:23:54.284Z,52.00
2017-04-23T12:24:53.956Z,52.40
2017-04-23T12:25:52.895Z,52.40
2017-04-23T12:26:51.858Z,52.90
2017-04-23T12:27:51.525Z,52.90
2017-04-23T12:28:50.466Z,53.10
2017-04-23T12:29:49.407Z,52.80
2017-04-23T12:30:48.322Z,52.60
2017-04-23T12:31:47.276Z,52.40
2017-04-23T12:32:46.932Z,50.90
2017-04-23T12:33:45.816Z,50.90
2017-04-23T12:34:44.756Z,51.10
2017-04-23T12:35:44.509Z,50.20
2017-04-23T12:36:43.457Z,51.10
2017-04-23T12:37:42.482Z,51.60
2017-04-23T12:38:41.426Z,52.00
2017-04-23T12:39:40.463Z,52.70
2017-04-23T12:40:39.550Z,52.90
2017-04-23T12:41:39.259Z,52.90
2017-04-23T12:42:38.245Z,53.60
2017-04-23T12:43:37.935Z,53.90
2017-04-23T12:44:37.667Z,53.90
2017-04-23T12:45:36.591Z,53.40
2017-04-23T12:46:35.561Z,52.60
2017-04-23T12:47:34.434Z,51.80